Time;durP1;ratioP1;P1;durP2;ratioP2;P2;SDS_P1;SDS_P2;PMS_P1;PMS_P2;Temp;Humidity;BMP_temperature;BMP_pressure;BME280_temperature;BME280_humidity;BME280_pressure;Samples;Min_cycle;Max_cycle;Signal;HPM_P1;HPM_P2
2022/09/17 00:00:19;;;;;;;16.45;3.40;;;;;;;10.75;83.94;101224.03;5067712;28;20128;-74
2022/09/17 00:02:48;;;;;;;14.93;3.05;;;;;;;10.73;83.96;101226.75;5068794;28;20464;-75
2022/09/17 00:05:13;;;;;;;15.25;4.00;;;;;;;10.61;84.09;101231.13;5060127;28;20367;-76
2022/09/17 00:07:39;;;;;;;14.82;3.38;;;;;;;10.69;84.21;101237.47;5062821;28;20468;-74
2022/09/17 00:10:04;;;;;;;14.30;3.10;;;;;;;10.63;84.64;101231.00;5060115;28;20112;-75
2022/09/17 00:12:31;;;;;;;14.32;3.60;;;;;;;10.69;84.32;101242.66;5064290;28;20472;-74
2022/09/17 00:14:56;;;;;;;13.70;3.47;;;;;;;10.69;83.81;101246.09;5055688;28;20046;-78
2022/09/17 00:17:22;;;;;;;14.25;3.58;;;;;;;10.54;84.55;101231.66;5062576;28;20028;-74
2022/09/17 00:19:48;;;;;;;14.02;3.05;;;;;;;10.64;84.17;101249.03;5064059;28;20368;-74
2022/09/17 00:22:14;;;;;;;12.25;3.17;;;;;;;10.60;84.86;101250.19;5067895;28;20037;-75
2022/09/17 00:24:39;;;;;;;13.70;2.95;;;;;;;10.60;84.65;101245.00;5064666;28;20020;-74
2022/09/17 00:27:05;;;;;;;12.93;2.95;;;;;;;10.56;85.49;101251.38;5061786;28;20040;-74
2022/09/17 00:29:30;;;;;;;16.27;3.63;;;;;;;10.40;84.88;101224.94;5066176;28;20024;-74
2022/09/17 00:31:55;;;;;;;12.52;3.25;;;;;;;10.57;84.82;101258.22;5062711;28;20032;-74
2022/09/17 00:34:21;;;;;;;15.38;3.40;;;;;;;10.52;85.62;101249.13;5049433;28;20116;-75
2022/09/17 00:36:46;;;;;;;12.88;2.88;;;;;;;10.54;85.03;101253.25;5060699;28;20511;-75
2022/09/17 00:39:14;;;;;;;12.60;2.08;;;;;;;10.60;85.23;101250.19;5067654;28;20048;-74
2022/09/17 00:41:40;;;;;;;15.23;3.35;;;;;;;10.56;84.47;101256.56;5065391;28;20418;-75
2022/09/17 00:44:43;;;;;;;14.73;3.40;;;;;;;10.55;84.96;101260.09;5055066;28;20025;-74
2022/09/17 00:47:19;;;;;;;14.45;3.10;;;;;;;10.56;84.44;101261.75;5067608;28;20457;-74
2022/09/17 00:49:46;;;;;;;13.05;3.05;;;;;;;10.48;85.77;101253.69;5070723;28;20020;-74
2022/09/17 00:52:17;;;;;;;13.45;2.33;;;;;;;10.53;84.94;101256.78;5073094;28;20031;-75
2022/09/17 00:54:51;;;;;;;13.65;3.22;;;;;;;10.52;85.00;101262.09;5070262;28;20069;-74
2022/09/17 00:57:16;;;;;;;10.88;2.75;;;;;;;10.52;84.79;101260.31;5072414;28;20399;-75
2022/09/17 00:59:42;;;;;;;13.63;3.50;;;;;;;10.40;85.75;101258.63;5048258;28;20021;-74
2022/09/17 01:02:07;;;;;;;9.65;2.35;;;;;;;10.47;85.00;101265.03;5047972;28;20033;-75
2022/09/17 01:04:33;;;;;;;13.05;2.78;;;;;;;10.40;85.39;101257.81;5075985;28;20028;-75
2022/09/17 01:07:34;;;;;;;12.32;1.95;;;;;;;10.52;85.04;101270.69;5067090;28;20032;-74
2022/09/17 01:10:27;;;;;;;13.38;2.78;;;;;;;10.47;85.48;101277.97;5056778;28;20028;-75
2022/09/17 01:13:27;;;;;;;10.70;2.55;;;;;;;10.52;85.03;101265.50;5057128;28;20024;-74
2022/09/17 01:16:14;;;;;;;11.93;2.85;;;;;;;10.44;85.29;101275.63;5060331;28;20162;-74
2022/09/17 01:18:51;;;;;;;9.85;2.25;;;;;;;10.45;84.75;101279.88;5060286;28;20457;-75
2022/09/17 01:21:43;;;;;;;12.95;2.85;;;;;;;10.46;84.70;101275.50;5061796;28;20472;-74
2022/09/17 01:24:39;;;;;;;10.50;2.03;;;;;;;10.53;84.68;101293.09;5049693;28;20041;-74
2022/09/17 01:27:28;;;;;;;8.80;1.73;;;;;;;10.53;85.05;101287.06;5056941;28;20056;-74
2022/09/17 01:29:56;;;;;;;14.68;2.88;;;;;;;10.42;85.35;101280.09;5056114;28;20040;-74
2022/09/17 01:32:30;;;;;;;13.60;2.72;;;;;;;10.31;84.85;101282.63;5050920;28;20116;-74
2022/09/17 01:35:19;;;;;;;11.23;2.17;;;;;;;10.45;84.83;101285.06;5051262;28;20171;-75
2022/09/17 01:38:00;;;;;;;13.43;3.00;;;;;;;10.36;85.11;101283.13;5058955;28;20040;-74
2022/09/17 01:40:38;;;;;;;11.00;2.50;;;;;;;10.34;85.23;101287.63;5050914;28;20119;-75
2022/09/17 01:43:13;;;;;;;11.82;2.05;;;;;;;10.41;85.12;101286.22;5051524;28;20091;-75
2022/09/17 01:45:50;;;;;;;11.95;2.70;;;;;;;10.30;85.77;101286.19;5061533;28;20025;-74
2022/09/17 01:48:46;;;;;;;11.73;2.90;;;;;;;10.32;85.71;101292.06;5056153;28;20032;-75
2022/09/17 01:51:36;;;;;;;8.82;2.40;;;;;;;10.35;84.75;101294.44;5045875;28;20082;-74
2022/09/17 01:54:32;;;;;;;9.52;1.67;;;;;;;10.34;85.11;101293.63;5051628;28;20035;-74
2022/09/17 01:57:03;;;;;;;9.88;2.00;;;;;;;10.26;85.49;101297.69;5072791;28;20044;-75
2022/09/17 01:59:43;;;;;;;11.38;2.78;;;;;;;10.11;86.10;101295.25;5056488;28;20460;-75
2022/09/17 02:02:34;;;;;;;13.40;2.88;;;;;;;10.21;85.96;101302.38;5061907;28;20024;-75
2022/09/17 02:05:10;;;;;;;13.85;3.25;;;;;;;10.16;86.80;101309.66;5052574;28;20040;-74
2022/09/17 02:07:52;;;;;;;8.88;2.10;;;;;;;10.15;86.54;101297.63;5046969;28;20469;-75
2022/09/17 02:10:22;;;;;;;12.27;2.38;;;;;;;10.19;86.64;101299.06;5046749;28;20020;-74
2022/09/17 02:13:14;;;;;;;12.20;2.95;;;;;;;10.17;86.39;101311.31;5058193;28;20029;-74
2022/09/17 02:15:46;;;;;;;16.25;2.78;;;;;;;10.17;86.46;101295.75;5055634;28;20055;-74
2022/09/17 02:18:35;;;;;;;12.30;2.72;;;;;;;10.08;86.51;101302.41;5064247;28;20029;-75
2022/09/17 02:21:44;;;;;;;8.77;1.55;;;;;;;10.23;85.91;101300.50;5065386;28;20025;-75
2022/09/17 02:24:30;;;;;;;11.60;2.67;;;;;;;10.09;86.06;101304.06;5052516;28;20041;-74
2022/09/17 02:27:08;;;;;;;8.45;1.60;;;;;;;10.16;84.16;101304.47;5067914;28;20405;-74
2022/09/17 02:29:42;;;;;;;10.35;2.15;;;;;;;10.11;84.14;101300.44;5069217;28;20133;-75
2022/09/17 02:32:08;;;;;;;12.50;2.85;;;;;;;10.08;85.46;101297.22;5057010;28;20109;-75
2022/09/17 02:34:34;;;;;;;9.13;1.88;;;;;;;10.14;86.22;101307.16;5068961;28;20032;-75
2022/09/17 02:37:00;;;;;;;11.23;2.67;;;;;;;10.15;85.10;101310.56;5069643;28;20081;-75
2022/09/17 02:39:26;;;;;;;13.75;2.78;;;;;;;10.13;85.40;101309.88;5051984;28;20052;-75
2022/09/17 02:42:03;;;;;;;12.93;3.08;;;;;;;10.22;85.72;101309.22;5062010;28;20072;-74
2022/09/17 02:45:04;;;;;;;12.23;2.90;;;;;;;10.21;85.42;101297.19;5066732;28;20020;-74
2022/09/17 02:47:59;;;;;;;8.38;2.08;;;;;;;10.26;85.07;101308.06;5058252;28;20020;-75
2022/09/17 02:50:58;;;;;;;5.60;1.25;;;;;;;10.26;85.71;101315.84;5069654;28;20029;-76
2022/09/17 02:53:46;;;;;;;10.27;2.20;;;;;;;10.25;84.85;101309.00;5053681;28;20038;-74
2022/09/17 02:56:23;;;;;;;10.03;2.63;;;;;;;10.20;84.72;101306.72;5080411;28;20027;-74
2022/09/17 02:59:08;;;;;;;16.52;3.53;;;;;;;10.18;85.50;101312.97;5059892;28;20388;-74
2022/09/17 03:01:39;;;;;;;11.52;1.85;;;;;;;10.28;84.76;101308.81;5068311;28;20032;-74
2022/09/17 03:04:09;;;;;;;12.38;2.47;;;;;;;10.22;84.61;101319.59;5068764;28;20032;-74
2022/09/17 03:06:34;;;;;;;11.38;2.72;;;;;;;10.13;85.05;101315.06;5057223;28;20040;-74
2022/09/17 03:09:00;;;;;;;13.07;2.33;;;;;;;10.22;84.79;101322.19;5068397;28;20032;-74
2022/09/17 03:11:25;;;;;;;10.57;2.33;;;;;;;10.15;85.13;101323.53;5060471;28;20025;-74
2022/09/17 03:13:51;;;;;;;14.05;2.53;;;;;;;10.14;84.63;101327.06;5050972;28;20107;-74
2022/09/17 03:16:16;;;;;;;10.30;2.55;;;;;;;10.09;84.15;101317.88;5054279;28;20407;-74
2022/09/17 03:18:42;;;;;;;10.85;2.38;;;;;;;10.15;84.42;101320.94;5059810;28;20112;-74
2022/09/17 03:21:07;;;;;;;12.15;2.53;;;;;;;10.10;84.85;101322.13;5058499;28;20016;-75
2022/09/17 03:23:33;;;;;;;8.35;1.48;;;;;;;10.18;84.95;101318.97;5069137;28;20036;-74
2022/09/17 03:25:59;;;;;;;12.60;2.70;;;;;;;10.03;85.05;101310.50;5067420;28;20033;-74
2022/09/17 03:28:25;;;;;;;12.43;2.45;;;;;;;10.13;84.97;101309.88;5061992;28;20036;-75
2022/09/17 03:30:51;;;;;;;6.75;1.52;;;;;;;10.19;84.87;101310.25;5057153;28;20503;-74
2022/09/17 03:33:16;;;;;;;10.25;2.47;;;;;;;10.14;84.47;101301.16;5057171;28;20028;-76
2022/09/17 03:35:43;;;;;;;11.02;2.40;;;;;;;10.16;84.08;101299.28;5067921;28;20040;-74
2022/09/17 03:38:08;;;;;;;9.45;2.33;;;;;;;10.19;84.25;101301.66;5058776;28;20499;-74
2022/09/17 03:40:33;;;;;;;10.30;1.90;;;;;;;10.19;84.81;101302.47;5058139;28;20065;-74
2022/09/17 03:42:59;;;;;;;11.93;2.90;;;;;;;10.10;84.35;101306.56;5053779;28;20052;-74
2022/09/17 03:45:24;;;;;;;8.57;1.88;;;;;;;10.16;84.67;101305.31;5066991;28;20040;-75
2022/09/17 03:47:49;;;;;;;11.38;2.33;;;;;;;10.13;84.95;101304.69;5065548;28;20075;-74
2022/09/17 03:50:15;;;;;;;10.10;1.83;;;;;;;10.19;84.77;101299.88;5067850;28;20021;-75
2022/09/17 03:52:42;;;;;;;6.60;1.92;;;;;;;10.21;84.40;101299.78;5064430;28;20025;-75
2022/09/17 03:55:07;;;;;;;11.32;2.42;;;;;;;10.10;83.57;101300.56;5059975;28;20032;-75
2022/09/17 03:57:33;;;;;;;12.15;2.22;;;;;;;10.13;83.65;101289.13;5063784;28;20537;-74
2022/09/17 03:59:58;;;;;;;12.38;2.58;;;;;;;10.06;83.55;101294.75;5061366;28;20059;-74
2022/09/17 04:02:24;;;;;;;10.95;2.58;;;;;;;10.08;84.03;101316.19;5068965;28;20509;-75
2022/09/17 04:04:49;;;;;;;8.50;1.50;;;;;;;10.14;83.80;101308.94;5059428;28;20021;-74
2022/09/17 04:07:14;;;;;;;11.43;2.80;;;;;;;10.08;84.16;101308.44;5064999;28;20420;-75
2022/09/17 04:09:40;;;;;;;7.57;1.50;;;;;;;10.06;84.48;101318.09;5057331;28;20036;-75
2022/09/17 04:12:05;;;;;;;11.85;2.28;;;;;;;10.00;84.46;101326.31;5056107;28;20025;-77
2022/09/17 04:14:30;;;;;;;7.72;1.90;;;;;;;10.09;83.94;101330.84;5068969;28;20025;-75
2022/09/17 04:16:57;;;;;;;6.25;1.55;;;;;;;10.08;83.76;101329.16;5066369;28;20449;-76
2022/09/17 04:19:22;;;;;;;11.70;2.70;;;;;;;9.89;85.12;101322.81;5056831;28;20024;-74
2022/09/17 04:21:48;;;;;;;11.07;2.65;;;;;;;9.98;85.01;101328.19;5068391;28;20571;-74
2022/09/17 04:24:13;;;;;;;6.30;1.45;;;;;;;10.03;84.82;101339.03;5057824;28;20473;-76
2022/09/17 04:26:38;;;;;;;10.95;2.47;;;;;;;9.96;85.25;101340.41;5068719;28;20303;-74
2022/09/17 04:29:04;;;;;;;7.70;1.65;;;;;;;9.90;85.19;101335.66;5052349;28;20131;-74
2022/09/17 04:31:29;;;;;;;9.40;2.25;;;;;;;9.87;84.98;101346.25;5057856;28;20029;-74
2022/09/17 04:33:54;;;;;;;6.25;1.23;;;;;;;9.88;85.91;101342.72;5057734;28;20024;-74
2022/09/17 04:36:20;;;;;;;5.60;1.25;;;;;;;9.57;85.26;101292.22;5067260;28;20043;-74
2022/09/17 04:38:48;;;;;;;7.00;1.75;;;;;;;9.85;85.53;101343.75;5055994;28;20504;-75
2022/09/17 04:41:14;;;;;;;10.32;1.58;;;;;;;9.89;85.64;101330.59;5058244;28;20063;-76
2022/09/17 04:43:39;;;;;;;10.70;1.98;;;;;;;9.83;85.78;101326.66;5054871;28;20056;-74
2022/09/17 04:46:05;;;;;;;9.88;2.22;;;;;;;9.77;85.50;101329.69;5058518;28;20032;-74
2022/09/17 04:48:30;;;;;;;13.30;2.47;;;;;;;9.64;84.64;101297.81;5047874;28;20021;-74
2022/09/17 04:50:55;;;;;;;7.18;1.45;;;;;;;9.78;84.73;101320.97;5057986;28;20028;-75
2022/09/17 04:53:21;;;;;;;7.07;1.23;;;;;;;9.81;85.03;101331.97;5065479;28;20043;-74
2022/09/17 04:55:46;;;;;;;6.30;1.42;;;;;;;9.79;84.07;101333.81;5073136;28;20033;-74
2022/09/17 04:58:11;;;;;;;10.15;2.22;;;;;;;9.73;84.54;101336.00;5063633;28;20483;-74
2022/09/17 05:00:37;;;;;;;10.90;2.25;;;;;;;9.70;84.73;101328.47;5054064;28;20492;-74
2022/09/17 05:03:03;;;;;;;12.93;1.65;;;;;;;9.77;83.75;101340.88;5065250;28;20067;-75
2022/09/17 05:05:28;;;;;;;8.18;2.13;;;;;;;9.66;84.21;101333.03;5062395;28;20036;-74
2022/09/17 05:07:54;;;;;;;6.43;1.17;;;;;;;9.78;84.33;101341.69;5067694;28;20109;-74
2022/09/17 05:10:21;;;;;;;12.15;1.92;;;;;;;9.76;84.33;101349.59;5067440;28;20066;-77
2022/09/17 05:12:51;;;;;;;10.40;2.17;;;;;;;9.75;85.16;101347.13;5060102;28;20111;-76
2022/09/17 05:15:17;;;;;;;11.75;2.25;;;;;;;9.65;84.88;101341.72;5066132;28;20028;-74
2022/09/17 05:17:42;;;;;;;8.05;1.60;;;;;;;9.70;85.04;101328.47;5067408;28;20066;-74
2022/09/17 05:20:08;;;;;;;9.75;1.80;;;;;;;9.68;84.72;101335.50;5064735;28;20020;-74
2022/09/17 05:22:34;;;;;;;12.48;1.95;;;;;;;9.61;85.02;101339.47;5048291;28;20031;-74
2022/09/17 05:24:59;;;;;;;8.20;1.58;;;;;;;9.61;85.27;101347.22;5058717;28;20040;-74
2022/09/17 05:27:25;;;;;;;12.57;2.55;;;;;;;9.52;85.03;101346.13;5064090;28;20026;-75
2022/09/17 05:29:50;;;;;;;11.13;1.48;;;;;;;9.60;85.44;101350.75;5048092;28;20029;-74
2022/09/17 05:32:16;;;;;;;8.93;1.70;;;;;;;9.59;85.80;101357.69;5055455;28;20159;-75
2022/09/17 05:34:41;;;;;;;11.75;2.30;;;;;;;9.58;85.69;101358.63;5065049;28;20028;-74
2022/09/17 05:37:10;;;;;;;10.13;2.30;;;;;;;9.42;85.68;101356.25;5064387;28;20822;-75
2022/09/17 05:39:35;;;;;;;6.93;1.33;;;;;;;9.61;84.86;101362.75;5062447;28;20115;-75
2022/09/17 05:42:01;;;;;;;7.38;1.60;;;;;;;9.52;85.43;101365.06;5047392;28;20132;-76
2022/09/17 05:44:26;;;;;;;8.85;1.30;;;;;;;9.54;85.42;101365.78;5057820;28;20334;-76
2022/09/17 05:46:52;;;;;;;10.13;1.40;;;;;;;9.61;84.79;101370.53;5054334;28;20028;-75
2022/09/17 05:49:17;;;;;;;10.02;1.38;;;;;;;9.54;85.09;101363.19;5061805;28;20017;-74
2022/09/17 05:51:43;;;;;;;8.60;1.77;;;;;;;9.61;85.24;101375.72;5063183;28;20345;-74
2022/09/17 05:54:08;;;;;;;11.30;1.98;;;;;;;9.59;85.03;101373.22;5067943;28;20032;-75
2022/09/17 05:56:33;;;;;;;8.93;1.70;;;;;;;9.59;85.15;101370.66;5076774;28;20119;-74
2022/09/17 05:58:59;;;;;;;8.68;1.77;;;;;;;9.66;84.77;101373.63;5079664;28;20032;-74
2022/09/17 06:01:24;;;;;;;8.63;1.40;;;;;;;9.66;84.90;101371.03;5066839;28;20090;-76
2022/09/17 06:03:50;;;;;;;7.53;1.35;;;;;;;9.64;84.40;101380.69;5048865;28;20067;-75
2022/09/17 06:06:15;;;;;;;8.80;1.42;;;;;;;9.65;83.79;101378.00;5057746;28;20017;-74
2022/09/17 06:08:41;;;;;;;9.77;1.70;;;;;;;9.66;84.24;101378.81;5050079;28;20504;-74
2022/09/17 06:11:08;;;;;;;12.65;1.77;;;;;;;9.65;84.88;101378.00;5058426;28;20079;-75
2022/09/17 06:13:34;;;;;;;6.88;1.67;;;;;;;9.76;83.35;101392.81;5052867;28;20028;-75
2022/09/17 06:16:00;;;;;;;12.77;2.50;;;;;;;9.73;84.21;101385.22;5049858;28;20033;-74
2022/09/17 06:18:27;;;;;;;7.68;1.58;;;;;;;9.83;84.00;101388.84;5049654;28;20051;-74
2022/09/17 06:20:56;;;;;;;10.95;1.60;;;;;;;9.90;83.52;101397.00;5055259;28;20025;-74
2022/09/17 06:23:23;;;;;;;8.57;1.83;;;;;;;9.90;84.26;101392.66;5051640;28;20323;-74
2022/09/17 06:25:56;;;;;;;6.55;1.42;;;;;;;9.96;83.72;101397.41;5050795;28;20025;-75
2022/09/17 06:28:22;;;;;;;6.03;1.30;;;;;;;10.02;83.11;101398.75;5055427;28;20032;-74
2022/09/17 06:30:47;;;;;;;7.85;1.58;;;;;;;10.01;82.63;101397.09;5052914;28;20013;-75
2022/09/17 06:33:14;;;;;;;10.90;1.95;;;;;;;10.09;83.04;101405.16;5051738;28;20399;-75
2022/09/17 06:35:39;;;;;;;10.60;1.80;;;;;;;10.13;82.70;101392.81;5066360;28;20460;-75
2022/09/17 06:38:05;;;;;;;8.45;2.00;;;;;;;10.04;82.07;101396.91;5061419;28;20049;-74
2022/09/17 06:40:30;;;;;;;6.43;1.42;;;;;;;10.13;82.33;101404.00;5068937;28;20086;-74
2022/09/17 06:42:58;;;;;;;5.95;1.13;;;;;;;10.19;82.15;101407.94;5055558;28;20028;-74
2022/09/17 06:45:23;;;;;;;7.47;1.67;;;;;;;10.20;82.03;101409.56;5063270;28;20024;-74
2022/09/17 06:47:48;;;;;;;7.45;1.25;;;;;;;10.26;82.07;101404.00;5056977;28;20044;-74
2022/09/17 06:50:14;;;;;;;6.68;1.35;;;;;;;10.24;82.25;101395.50;5059488;28;20023;-74
2022/09/17 06:52:46;;;;;;;10.63;1.45;;;;;;;10.33;81.31;101400.06;5066485;28;20107;-74
2022/09/17 06:55:12;;;;;;;7.63;1.67;;;;;;;10.33;80.97;101402.63;5064575;28;20112;-76
2022/09/17 06:57:37;;;;;;;8.23;2.03;;;;;;;10.39;80.47;101404.78;5063818;28;20552;-75
2022/09/17 07:00:03;;;;;;;6.05;1.00;;;;;;;10.45;80.59;101409.53;5048834;28;20446;-74
2022/09/17 07:02:28;;;;;;;9.88;1.98;;;;;;;10.41;81.18;101402.91;5054481;28;20552;-75
2022/09/17 07:04:54;;;;;;;4.47;0.98;;;;;;;10.50;80.63;101407.44;5049813;28;20028;-74
2022/09/17 07:07:19;;;;;;;7.60;1.60;;;;;;;10.55;80.78;101405.34;5058859;28;20032;-74
2022/09/17 07:09:44;;;;;;;8.27;1.58;;;;;;;10.62;81.22;101416.09;5061125;28;20347;-75
2022/09/17 07:12:10;;;;;;;6.80;1.17;;;;;;;10.70;81.12;101407.75;5055472;28;21047;-75
2022/09/17 07:14:35;;;;;;;8.73;1.58;;;;;;;10.76;79.89;101407.31;5060019;28;20090;-74
2022/09/17 07:17:00;;;;;;;5.15;1.25;;;;;;;10.83;80.08;101392.94;5064534;28;20075;-75
2022/09/17 07:19:26;;;;;;;5.60;1.73;;;;;;;10.93;80.01;101400.88;5057886;28;20035;-75
2022/09/17 07:21:51;;;;;;;6.28;1.55;;;;;;;10.90;78.67;101399.34;5060154;28;20063;-74
2022/09/17 07:24:16;;;;;;;4.97;0.82;;;;;;;11.00;77.97;101402.91;5058892;28;20028;-74
2022/09/17 07:26:42;;;;;;;6.78;1.48;;;;;;;10.96;78.75;101388.53;5052111;28;20039;-75
2022/09/17 07:29:07;;;;;;;4.53;0.82;;;;;;;11.13;79.59;101411.47;5052364;28;20032;-75
2022/09/17 07:31:32;;;;;;;7.65;1.52;;;;;;;11.11;77.67;101402.94;5055464;28;20044;-76
2022/09/17 07:33:58;;;;;;;6.05;1.42;;;;;;;11.14;78.02;101407.91;5057815;28;20031;-76
2022/09/17 07:36:23;;;;;;;8.43;1.77;;;;;;;11.22;78.58;101393.53;5060718;28;20031;-75
2022/09/17 07:38:49;;;;;;;8.43;1.52;;;;;;;11.29;77.72;101410.28;5069201;28;20131;-74
2022/09/17 07:41:16;;;;;;;5.18;1.25;;;;;;;11.36;76.87;101417.53;5062914;28;20037;-74
2022/09/17 07:43:42;;;;;;;6.03;1.38;;;;;;;11.38;76.61;101415.63;5060838;28;20375;-74
2022/09/17 07:46:13;;;;;;;6.30;1.30;;;;;;;11.39;76.34;101421.66;5057808;28;20396;-74
2022/09/17 07:48:39;;;;;;;6.35;1.27;;;;;;;11.43;77.38;101404.91;5053963;28;20032;-74
2022/09/17 07:51:05;;;;;;;7.97;1.73;;;;;;;11.48;77.02;101407.97;5062184;28;20021;-74
2022/09/17 07:53:31;;;;;;;7.28;1.45;;;;;;;11.48;77.69;101405.38;5065027;28;20021;-75
2022/09/17 07:55:58;;;;;;;5.70;1.50;;;;;;;11.52;77.37;101422.34;5067051;28;20467;-74
2022/09/17 07:58:32;;;;;;;7.25;1.60;;;;;;;11.55;77.67;101416.94;5049789;28;20025;-74
2022/09/17 08:01:07;;;;;;;8.23;1.70;;;;;;;11.62;77.62;101412.94;5056376;28;20040;-73
2022/09/17 08:03:34;;;;;;;5.90;1.23;;;;;;;11.70;77.94;101418.38;5048187;28;20033;-74
2022/09/17 08:06:02;;;;;;;6.38;1.25;;;;;;;11.80;78.18;101420.25;5055073;28;20028;-74
2022/09/17 08:08:29;;;;;;;7.70;1.58;;;;;;;11.77;77.52;101416.13;5068339;28;20058;-74
2022/09/17 08:10:59;;;;;;;7.43;1.77;;;;;;;11.86;78.81;101410.25;5068466;28;20349;-74
2022/09/17 08:13:24;;;;;;;8.02;1.50;;;;;;;11.85;78.27;101413.78;5068383;28;20059;-74
2022/09/17 08:15:49;;;;;;;6.40;1.48;;;;;;;11.87;78.20;101411.91;5063122;28;20056;-74
2022/09/17 08:18:16;;;;;;;7.38;1.58;;;;;;;11.89;78.15;101422.19;5053467;28;20078;-74
2022/09/17 08:20:41;;;;;;;8.07;1.77;;;;;;;12.04;78.78;101420.16;5062983;28;20340;-75
2022/09/17 08:23:06;;;;;;;9.40;2.13;;;;;;;12.04;77.80;101413.16;5050757;28;20472;-75
2022/09/17 08:25:32;;;;;;;7.93;2.00;;;;;;;12.03;76.88;101423.69;5060537;28;20456;-75
2022/09/17 08:27:58;;;;;;;8.55;1.50;;;;;;;12.15;77.29;101415.75;5055779;28;20028;-74
2022/09/17 08:30:23;;;;;;;7.10;1.50;;;;;;;12.25;77.73;101409.84;5064649;28;20016;-75
2022/09/17 08:32:49;;;;;;;9.85;1.73;;;;;;;12.18;76.39;101399.94;5057950;28;20056;-75
2022/09/17 08:35:15;;;;;;;10.38;1.80;;;;;;;12.30;74.86;101412.91;5059031;28;20056;-75
2022/09/17 08:37:41;;;;;;;9.45;1.85;;;;;;;12.32;74.47;101417.03;5058941;28;20048;-74
2022/09/17 08:40:13;;;;;;;7.00;1.40;;;;;;;12.51;75.46;101415.59;5060970;28;20021;-75
2022/09/17 08:42:50;;;;;;;8.07;1.25;;;;;;;12.59;74.93;101418.38;5053657;28;20032;-76
2022/09/17 08:45:18;;;;;;;5.78;1.30;;;;;;;12.59;72.97;101408.78;5073660;28;20036;-74
2022/09/17 08:47:45;;;;;;;8.18;1.75;;;;;;;12.67;72.80;101409.03;5057826;28;20028;-75
2022/09/17 08:50:26;;;;;;;8.70;1.50;;;;;;;12.59;72.65;101421.81;5062782;28;20453;-75
2022/09/17 08:53:21;;;;;;;7.47;1.55;;;;;;;12.69;70.81;101420.13;5058497;28;20487;-76
2022/09/17 08:56:11;;;;;;;8.45;2.25;;;;;;;12.77;71.43;101422.91;5060366;28;20403;-74
2022/09/17 08:59:07;;;;;;;10.18;1.60;;;;;;;12.85;71.62;101426.69;5053634;28;20496;-75
2022/09/17 09:01:42;;;;;;;7.07;1.50;;;;;;;12.93;71.07;101422.50;5043628;28;20492;-75
2022/09/17 09:04:20;;;;;;;6.70;1.50;;;;;;;12.94;70.86;101423.31;5056458;28;20055;-75
2022/09/17 09:06:50;;;;;;;8.77;1.85;;;;;;;12.93;68.78;101411.25;5062448;28;20518;-75
2022/09/17 09:09:22;;;;;;;7.43;1.40;;;;;;;13.06;68.21;101411.88;5056827;28;20027;-76
2022/09/17 09:11:52;;;;;;;7.75;1.70;;;;;;;13.11;68.17;101414.94;5048805;28;20035;-75
2022/09/17 09:14:24;;;;;;;9.50;1.65;;;;;;;13.28;68.84;101417.00;5047571;28;20108;-75
2022/09/17 09:16:51;;;;;;;6.18;1.15;;;;;;;13.32;68.75;101416.75;5053264;28;20025;-74
2022/09/17 09:19:21;;;;;;;6.18;1.75;;;;;;;13.26;67.78;101413.72;5059511;28;20497;-74
2022/09/17 09:22:12;;;;;;;7.07;1.65;;;;;;;13.22;69.38;101422.72;5051615;28;20036;-75
2022/09/17 09:24:55;;;;;;;9.50;1.98;;;;;;;13.06;73.05;101437.09;5050192;28;20040;-74
2022/09/17 09:27:28;;;;;;;7.60;1.45;;;;;;;12.55;74.70;101472.44;5056435;28;20047;-75
2022/09/17 09:30:05;;;;;;;7.03;1.27;;;;;;;12.28;77.28;101472.03;5063941;28;20028;-76
2022/09/17 09:33:05;;;;;;;6.65;1.20;;;;;;;12.11;79.74;101461.16;5058154;28;20036;-75
2022/09/17 09:35:33;;;;;;;5.45;1.17;;;;;;;11.73;79.92;101460.66;5040685;28;20048;-75
2022/09/17 09:38:22;;;;;;;6.40;1.08;;;;;;;11.66;81.24;101466.31;5054914;28;20053;-75
2022/09/17 09:41:10;;;;;;;6.00;1.30;;;;;;;11.53;82.99;101450.03;5046275;28;20033;-75
2022/09/17 09:43:46;;;;;;;4.28;0.98;;;;;;;11.74;84.64;101457.09;5052233;28;20504;-75
2022/09/17 09:46:20;;;;;;;6.82;1.23;;;;;;;11.85;82.75;101449.34;5051622;28;20512;-75
2022/09/17 09:49:15;;;;;;;4.68;0.90;;;;;;;11.90;82.75;101453.25;5058766;28;20025;-75
2022/09/17 09:52:03;;;;;;;4.57;1.00;;;;;;;12.11;85.00;101437.78;5056290;28;20028;-76
2022/09/17 09:54:37;;;;;;;4.68;1.20;;;;;;;12.22;80.63;101450.75;5054873;28;20029;-74
2022/09/17 09:57:07;;;;;;;6.38;1.20;;;;;;;12.30;81.52;101444.13;5054309;28;20037;-77
2022/09/17 09:59:35;;;;;;;4.60;1.10;;;;;;;12.48;82.11;101432.25;5052004;28;20443;-77
2022/09/17 10:02:00;;;;;;;5.70;1.13;;;;;;;12.53;81.25;101440.50;5059519;28;20137;-75
2022/09/17 10:04:27;;;;;;;4.60;1.23;;;;;;;12.72;82.29;101434.66;5055400;28;20058;-74
2022/09/17 10:06:59;;;;;;;4.88;1.15;;;;;;;12.70;79.91;101445.19;5063140;28;20502;-74
2022/09/17 10:09:26;;;;;;;5.35;0.90;;;;;;;12.83;79.86;101436.38;5058652;28;20104;-75
2022/09/17 10:12:18;;;;;;;11.07;2.15;;;;;;;12.97;79.91;101442.13;5060105;28;20016;-75
2022/09/17 10:14:45;;;;;;;6.60;1.25;;;;;;;13.14;80.93;101445.97;5050807;28;20115;-74
2022/09/17 10:17:24;;;;;;;7.53;1.48;;;;;;;13.08;78.65;101433.44;5061070;28;20052;-74
2022/09/17 10:19:58;;;;;;;5.13;1.27;;;;;;;13.10;78.03;101436.72;5055429;28;20028;-75
2022/09/17 10:22:31;;;;;;;6.63;1.45;;;;;;;13.06;76.37;101422.31;5058185;28;20047;-75
2022/09/17 10:24:59;;;;;;;6.55;1.20;;;;;;;13.10;75.10;101428.91;5053691;28;20028;-74
2022/09/17 10:27:25;;;;;;;4.30;1.10;;;;;;;13.15;73.84;101431.97;5050800;28;20036;-74
2022/09/17 10:30:18;;;;;;;6.38;1.20;;;;;;;13.28;74.88;101437.84;5057142;28;20021;-74
2022/09/17 10:33:09;;;;;;;6.95;1.38;;;;;;;13.32;74.31;101435.81;5058795;28;20110;-74
2022/09/17 10:35:34;;;;;;;5.65;1.13;;;;;;;13.42;74.44;101425.44;5050158;28;20513;-75
2022/09/17 10:38:00;;;;;;;6.03;1.15;;;;;;;13.52;75.54;101434.13;5054472;28;20044;-74
2022/09/17 10:40:29;;;;;;;6.38;0.93;;;;;;;13.42;70.30;101438.47;5048347;28;20033;-74
2022/09/17 10:43:18;;;;;;;5.45;1.17;;;;;;;13.47;72.13;101441.50;5055073;28;20020;-75
2022/09/17 10:45:53;;;;;;;5.63;1.30;;;;;;;13.47;70.77;101425.88;5057504;28;20025;-75
2022/09/17 10:48:21;;;;;;;4.78;1.02;;;;;;;13.64;71.95;101425.28;5061912;28;20388;-74
2022/09/17 10:50:52;;;;;;;4.30;1.08;;;;;;;13.69;69.83;101420.50;5053975;28;20044;-75
2022/09/17 10:53:20;;;;;;;5.00;1.33;;;;;;;13.86;71.45;101415.63;5056449;28;20028;-75
2022/09/17 10:56:05;;;;;;;6.60;1.20;;;;;;;13.89;70.59;101417.97;5073132;28;20033;-75
2022/09/17 10:58:37;;;;;;;4.32;1.00;;;;;;;13.78;67.84;101426.72;5048862;28;20325;-75
2022/09/17 11:01:13;;;;;;;6.50;1.60;;;;;;;13.59;68.98;101430.06;5056964;28;20029;-75
2022/09/17 11:04:09;;;;;;;5.68;1.10;;;;;;;13.45;71.25;101422.59;5054198;28;20467;-74
2022/09/17 11:07:25;;;;;;;6.72;1.40;;;;;;;13.41;73.35;101421.19;5065661;28;20024;-75
2022/09/17 11:10:01;;;;;;;5.32;1.20;;;;;;;13.57;74.84;101424.16;5039722;28;20048;-75
2022/09/17 11:13:07;;;;;;;5.03;1.13;;;;;;;13.58;74.11;101420.59;5068522;28;20028;-75
2022/09/17 11:15:47;;;;;;;6.00;1.33;;;;;;;13.71;73.67;101413.41;5026069;28;20044;-75
2022/09/17 11:18:26;;;;;;;5.75;1.20;;;;;;;13.83;70.96;101411.50;5066647;28;20031;-75
2022/09/17 11:21:09;;;;;;;5.32;1.10;;;;;;;14.20;74.35;101403.91;5050384;28;20123;-75
2022/09/17 11:24:00;;;;;;;6.55;1.25;;;;;;;14.46;72.74;101400.81;5057585;28;20066;-74
2022/09/17 11:26:28;;;;;;;5.32;1.02;;;;;;;14.28;70.42;101398.03;5061931;28;20154;-75
2022/09/17 11:29:10;;;;;;;3.70;1.00;;;;;;;14.42;71.54;101402.03;5059970;28;20046;-74
2022/09/17 11:31:58;;;;;;;6.95;1.25;;;;;;;14.41;70.53;101395.16;5057502;28;20464;-74
2022/09/17 11:34:44;;;;;;;5.75;1.60;;;;;;;14.24;68.41;101410.53;5059334;28;20029;-75
2022/09/17 11:37:22;;;;;;;5.97;1.30;;;;;;;14.16;69.17;101412.13;5060610;28;20119;-74
2022/09/17 11:39:57;;;;;;;4.88;1.33;;;;;;;14.17;65.96;101398.97;5051852;28;20455;-74
2022/09/17 11:42:29;;;;;;;6.13;1.20;;;;;;;14.40;67.42;101393.53;5059286;28;20051;-75
2022/09/17 11:45:03;;;;;;;6.90;1.30;;;;;;;14.48;66.36;101391.06;5057755;28;20028;-76